createdAt,value
2023-04-16T00:00:46.049Z,6.76
2023-04-16T00:03:12.456Z,7.06
2023-04-16T00:05:38.768Z,7.00
2023-04-16T00:08:05.048Z,7.01
2023-04-16T00:10:31.324Z,7.11
2023-04-16T00:12:57.604Z,7.36
2023-04-16T00:15:23.849Z,7.48
2023-04-16T00:17:50.131Z,7.61
2023-04-16T00:20:16.442Z,7.44
2023-04-16T00:22:42.718Z,7.34
2023-04-16T00:25:08.993Z,7.59
2023-04-16T00:27:35.230Z,7.67
2023-04-16T00:30:01.485Z,7.58
2023-04-16T00:32:27.782Z,7.47
2023-04-16T00:34:54.035Z,6.78
2023-04-16T00:37:20.293Z,6.37
2023-04-16T00:39:46.514Z,6.35
2023-04-16T00:42:12.768Z,6.14
2023-04-16T00:44:39.043Z,6.25
2023-04-16T00:47:05.310Z,6.07
2023-04-16T00:49:31.539Z,6.05
2023-04-16T00:51:57.797Z,5.77
2023-04-16T00:54:24.061Z,5.45
2023-04-16T00:56:50.328Z,5.48
2023-04-16T00:59:16.560Z,5.68
2023-04-16T01:01:42.883Z,6.63
2023-04-16T01:04:09.305Z,6.57
2023-04-16T01:06:35.622Z,6.99
2023-04-16T01:09:01.908Z,7.20
2023-04-16T01:11:28.178Z,6.96
2023-04-16T01:13:54.464Z,7.07
2023-04-16T01:16:20.775Z,7.33
2023-04-16T01:19:02.259Z,7.60
2023-04-16T01:21:28.556Z,7.57
2023-04-16T01:23:54.889Z,7.47
2023-04-16T01:26:21.140Z,7.76
2023-04-16T01:28:47.419Z,7.72
2023-04-16T01:31:13.743Z,7.61
2023-04-16T01:33:40.021Z,7.49
2023-04-16T01:36:06.251Z,7.24
2023-04-16T01:38:32.493Z,7.58
2023-04-16T01:40:58.767Z,7.60
2023-04-16T01:43:25.051Z,7.12
2023-04-16T01:45:51.343Z,7.21
2023-04-16T01:48:17.634Z,7.35
2023-04-16T01:50:43.897Z,7.02
2023-04-16T01:53:10.152Z,6.95
2023-04-16T01:55:36.381Z,7.43
2023-04-16T01:58:02.626Z,7.49
2023-04-16T02:00:28.846Z,7.69
2023-04-16T02:02:55.252Z,7.26
2023-04-16T02:05:21.599Z,7.56
2023-04-16T02:07:47.861Z,7.66
2023-04-16T02:10:14.126Z,7.67
2023-04-16T02:12:40.377Z,7.31
2023-04-16T02:15:06.606Z,7.33
2023-04-16T02:17:32.879Z,6.49
2023-04-16T02:19:59.126Z,7.23
2023-04-16T02:22:25.364Z,7.40
2023-04-16T02:24:51.639Z,7.61
2023-04-16T02:27:17.880Z,7.86
2023-04-16T02:29:44.107Z,7.82
2023-04-16T02:32:10.543Z,7.34
2023-04-16T02:34:36.937Z,7.53
2023-04-16T02:37:03.175Z,7.33
2023-04-16T02:39:29.434Z,7.59
2023-04-16T02:41:55.710Z,7.72
2023-04-16T02:44:21.976Z,7.38
2023-04-16T02:46:48.205Z,7.11
2023-04-16T02:49:14.456Z,6.16
2023-04-16T02:51:40.716Z,5.81
2023-04-16T02:54:06.957Z,6.35
2023-04-16T02:56:33.217Z,6.86
2023-04-16T02:58:59.484Z,6.50
2023-04-16T03:01:25.888Z,6.22
2023-04-16T03:03:52.141Z,6.61
2023-04-16T03:06:18.401Z,5.68
2023-04-16T03:08:44.665Z,5.47
2023-04-16T03:11:10.924Z,5.28
2023-04-16T03:13:37.221Z,5.62
2023-04-16T03:16:03.640Z,6.33
2023-04-16T03:18:29.975Z,6.54
2023-04-16T03:20:56.224Z,7.02
2023-04-16T03:23:22.466Z,6.79
2023-04-16T03:25:48.716Z,6.74
2023-04-16T03:28:14.958Z,7.22
2023-04-16T03:30:41.243Z,7.15
2023-04-16T03:33:07.536Z,7.42
2023-04-16T03:35:33.793Z,6.90
2023-04-16T03:38:00.046Z,7.08
2023-04-16T03:40:26.315Z,6.75
2023-04-16T03:42:52.575Z,6.85
2023-04-16T03:45:18.807Z,6.65
2023-04-16T03:47:45.204Z,7.05
2023-04-16T03:50:11.564Z,7.08
2023-04-16T03:52:37.931Z,6.83
2023-04-16T03:55:04.193Z,6.83
2023-04-16T03:57:30.441Z,7.07
2023-04-16T03:59:56.723Z,7.17
2023-04-16T04:02:23.225Z,7.37
2023-04-16T04:04:49.739Z,7.36
2023-04-16T04:07:16.001Z,7.10
2023-04-16T04:09:42.269Z,7.45
2023-04-16T04:12:08.513Z,7.18
2023-04-16T04:14:34.764Z,7.49
2023-04-16T04:17:01.039Z,7.56
2023-04-16T04:19:27.323Z,7.12
2023-04-16T04:21:53.569Z,7.49
2023-04-16T04:24:19.849Z,7.42
2023-04-16T04:26:46.103Z,6.71
2023-04-16T04:29:12.430Z,6.42
2023-04-16T04:31:38.812Z,6.08
2023-04-16T04:34:05.118Z,6.25
2023-04-16T04:36:31.378Z,6.54
2023-04-16T04:38:57.637Z,6.85
2023-04-16T04:41:23.879Z,6.91
2023-04-16T04:43:50.134Z,6.53
2023-04-16T04:46:16.424Z,7.04
2023-04-16T04:48:42.678Z,6.87
2023-04-16T04:51:08.922Z,7.24
2023-04-16T04:53:35.175Z,7.38
2023-04-16T04:56:11.116Z,7.55
2023-04-16T04:58:38.848Z,7.57
2023-04-16T05:01:05.115Z,7.44
2023-04-16T05:03:31.504Z,7.45
2023-04-16T05:05:57.867Z,7.49
2023-04-16T05:08:24.134Z,7.01
2023-04-16T05:10:50.468Z,7.21
2023-04-16T05:13:16.769Z,7.30
2023-04-16T05:15:42.993Z,7.62
2023-04-16T05:18:09.243Z,7.75
2023-04-16T05:20:35.483Z,7.77
2023-04-16T05:23:01.811Z,7.84
2023-04-16T05:25:28.168Z,7.85
2023-04-16T05:27:54.414Z,7.98
2023-04-16T05:30:20.682Z,7.58
2023-04-16T05:32:46.960Z,6.75
2023-04-16T05:35:13.927Z,6.45
2023-04-16T05:37:41.514Z,6.21
2023-04-16T05:40:07.752Z,6.97
2023-04-16T05:42:33.983Z,7.13
2023-04-16T05:45:00.271Z,7.31
2023-04-16T05:47:26.574Z,7.39
2023-04-16T05:49:52.953Z,7.18
2023-04-16T05:52:19.253Z,6.95
2023-04-16T05:54:45.504Z,6.59
2023-04-16T05:57:11.739Z,6.24
2023-04-16T05:59:37.983Z,5.77
2023-04-16T06:02:04.428Z,6.46
2023-04-16T06:04:30.770Z,5.97
2023-04-16T06:06:57.026Z,6.65
2023-04-16T06:09:23.280Z,6.79
2023-04-16T06:11:49.548Z,7.04
2023-04-16T06:14:15.762Z,6.82
2023-04-16T06:16:42.000Z,6.52
2023-04-16T06:19:08.740Z,7.04
2023-04-16T06:21:35.171Z,6.68
2023-04-16T06:24:01.456Z,6.72
2023-04-16T06:26:27.728Z,6.86
2023-04-16T06:28:53.973Z,7.37
2023-04-16T06:31:20.216Z,7.72
2023-04-16T06:33:46.511Z,7.96
2023-04-16T06:36:12.800Z,7.31
2023-04-16T06:38:39.042Z,6.83
2023-04-16T06:41:05.305Z,7.74
2023-04-16T06:43:31.627Z,8.06
2023-04-16T06:45:57.857Z,8.21
2023-04-16T06:48:24.069Z,8.54
2023-04-16T06:50:50.317Z,8.80
2023-04-16T06:53:16.591Z,9.01
2023-04-16T06:55:42.847Z,8.98
2023-04-16T06:58:09.077Z,7.95
2023-04-16T07:00:35.427Z,7.40
2023-04-16T07:03:02.035Z,7.66
2023-04-16T07:05:28.563Z,8.25
2023-04-16T07:07:54.879Z,8.40
2023-04-16T07:10:21.094Z,8.92
2023-04-16T07:12:47.329Z,8.18
2023-04-16T07:15:13.580Z,7.22
2023-04-16T07:17:39.879Z,7.04
2023-04-16T07:20:06.193Z,7.73
2023-04-16T07:22:32.449Z,7.77
2023-04-16T07:24:58.683Z,7.61
2023-04-16T07:27:24.945Z,7.57
2023-04-16T07:29:51.217Z,7.44
2023-04-16T07:32:17.513Z,7.57
2023-04-16T07:34:43.768Z,7.29
2023-04-16T07:37:10.029Z,7.59
2023-04-16T07:39:36.263Z,7.44
2023-04-16T07:42:02.541Z,7.89
2023-04-16T07:44:28.819Z,7.53
2023-04-16T07:46:55.133Z,7.20
2023-04-16T07:49:21.435Z,7.03
2023-04-16T07:51:47.674Z,7.65
2023-04-16T07:54:13.946Z,7.83
2023-04-16T07:56:40.234Z,7.61
2023-04-16T07:59:20.987Z,7.80
2023-04-16T08:01:48.723Z,7.70
2023-04-16T08:04:15.106Z,7.79
2023-04-16T08:06:41.484Z,7.60
2023-04-16T08:09:07.909Z,7.19
2023-04-16T08:11:34.287Z,7.19
2023-04-16T08:14:00.518Z,6.78
2023-04-16T08:16:26.825Z,6.91
2023-04-16T08:18:53.135Z,7.57
2023-04-16T08:21:19.449Z,8.15
2023-04-16T08:23:47.387Z,8.31
2023-04-16T08:26:13.645Z,8.61
2023-04-16T08:28:41.073Z,8.60
2023-04-16T08:31:07.443Z,8.76
2023-04-16T08:33:33.710Z,8.54
2023-04-16T08:36:00.061Z,8.76
2023-04-16T08:38:26.339Z,9.23
2023-04-16T08:40:52.572Z,9.23
2023-04-16T08:43:18.831Z,9.49
2023-04-16T08:45:45.076Z,9.52
2023-04-16T08:48:11.337Z,10.00
2023-04-16T08:50:37.601Z,10.17
2023-04-16T08:53:03.850Z,9.61
2023-04-16T08:55:30.156Z,9.75
2023-04-16T08:57:56.404Z,9.98
2023-04-16T09:00:22.692Z,8.39
2023-04-16T09:02:49.121Z,8.36
2023-04-16T09:05:15.619Z,9.21
2023-04-16T09:07:41.870Z,9.47
2023-04-16T09:10:08.210Z,9.09
2023-04-16T09:12:34.457Z,9.76
2023-04-16T09:15:00.736Z,9.85
2023-04-16T09:17:26.986Z,10.05
2023-04-16T09:19:53.276Z,10.25
2023-04-16T09:22:19.565Z,10.48
2023-04-16T09:24:45.809Z,10.61
2023-04-16T09:27:12.060Z,9.71
2023-04-16T09:29:38.324Z,9.91
2023-04-16T09:32:04.652Z,9.92
2023-04-16T09:34:30.929Z,10.22
2023-04-16T09:36:57.182Z,10.41
2023-04-16T09:39:23.449Z,10.86
2023-04-16T09:41:49.763Z,11.33
2023-04-16T09:44:15.994Z,11.18
2023-04-16T09:46:42.274Z,10.55
2023-04-16T09:49:08.968Z,10.77
2023-04-16T09:51:35.345Z,9.98
2023-04-16T09:54:01.569Z,9.46
2023-04-16T09:56:27.811Z,9.37
2023-04-16T09:58:54.054Z,9.50
2023-04-16T10:01:20.376Z,9.23
2023-04-16T10:03:46.769Z,9.02
2023-04-16T10:06:13.221Z,9.46
2023-04-16T10:08:39.445Z,9.23
2023-04-16T10:11:05.691Z,9.30
2023-04-16T10:13:31.934Z,9.35
2023-04-16T10:15:58.188Z,9.37
2023-04-16T10:18:24.443Z,9.90
2023-04-16T10:20:50.667Z,10.74
2023-04-16T10:23:16.923Z,10.44
2023-04-16T10:25:43.152Z,9.49
2023-04-16T10:28:09.374Z,9.92
2023-04-16T10:30:35.665Z,10.02
2023-04-16T10:33:02.042Z,10.10
2023-04-16T10:35:28.384Z,10.26
2023-04-16T10:37:54.636Z,9.78
2023-04-16T10:40:20.876Z,10.50
2023-04-16T10:42:47.296Z,9.64
2023-04-16T10:45:13.559Z,9.53
2023-04-16T10:47:39.861Z,10.11
2023-04-16T10:50:06.148Z,10.72
2023-04-16T10:52:32.392Z,10.40
2023-04-16T10:54:58.628Z,11.25
2023-04-16T10:57:24.912Z,11.59
2023-04-16T10:59:51.179Z,10.60
2023-04-16T11:02:17.627Z,10.29
2023-04-16T11:04:44.249Z,10.79
2023-04-16T11:07:10.606Z,10.23
2023-04-16T11:09:36.900Z,10.31
2023-04-16T11:12:03.136Z,10.42
2023-04-16T11:14:29.403Z,9.99
2023-04-16T11:16:55.625Z,10.91
2023-04-16T11:19:21.894Z,11.52
2023-04-16T11:21:48.150Z,11.76
2023-04-16T11:24:14.396Z,11.10
2023-04-16T11:26:40.658Z,11.77
2023-04-16T11:29:06.905Z,10.23
2023-04-16T11:31:33.219Z,10.51
2023-04-16T11:33:59.532Z,10.75
2023-04-16T11:37:06.239Z,10.03
2023-04-16T11:39:12.219Z,10.31
2023-04-16T11:41:38.635Z,10.98
2023-04-16T11:44:04.898Z,9.98
2023-04-16T11:46:31.184Z,10.77
2023-04-16T11:48:57.430Z,10.71
2023-04-16T11:51:23.931Z,10.02
2023-04-16T11:53:50.394Z,10.23
2023-04-16T11:56:16.636Z,10.34
2023-04-16T11:58:43.408Z,10.13
2023-04-16T12:01:09.763Z,10.66
2023-04-16T12:03:36.275Z,10.77
2023-04-16T12:06:02.716Z,11.10
2023-04-16T12:08:28.968Z,11.37
2023-04-16T12:10:55.205Z,10.78
2023-04-16T12:13:21.416Z,10.58
2023-04-16T12:15:47.758Z,10.72
2023-04-16T12:18:14.049Z,10.83
2023-04-16T12:20:40.303Z,10.29
2023-04-16T12:23:06.604Z,10.29
2023-04-16T12:25:32.888Z,10.44
2023-04-16T12:27:59.105Z,11.03
2023-04-16T12:30:25.333Z,10.97
2023-04-16T12:32:51.864Z,10.76
2023-04-16T12:35:18.368Z,10.98
2023-04-16T12:37:44.615Z,10.94
2023-04-16T12:40:11.015Z,10.98
2023-04-16T12:42:37.299Z,10.57
2023-04-16T12:45:03.542Z,10.67
2023-04-16T12:47:29.799Z,10.95
2023-04-16T12:49:56.098Z,11.39
2023-04-16T12:52:23.768Z,11.32
2023-04-16T12:54:50.161Z,11.52
2023-04-16T12:57:16.418Z,11.54
2023-04-16T12:59:42.668Z,11.05
2023-04-16T13:02:09.102Z,11.49
2023-04-16T13:04:35.517Z,11.95
2023-04-16T13:07:01.855Z,11.24
2023-04-16T13:09:28.103Z,11.57
2023-04-16T13:11:54.351Z,11.31
2023-04-16T13:14:20.603Z,11.56
2023-04-16T13:16:46.863Z,11.85
2023-04-16T13:19:13.300Z,11.73
2023-04-16T13:21:39.770Z,11.88
2023-04-16T13:24:06.063Z,11.58
2023-04-16T13:26:32.393Z,11.37
2023-04-16T13:28:58.630Z,11.55
2023-04-16T13:31:24.934Z,11.15
2023-04-16T13:33:51.195Z,11.19
2023-04-16T13:36:17.466Z,11.49
2023-04-16T13:38:43.727Z,11.27
2023-04-16T13:41:09.953Z,11.12
2023-04-16T13:43:36.198Z,11.18
2023-04-16T13:46:02.428Z,11.87
2023-04-16T13:48:28.708Z,12.25
2023-04-16T13:50:55.017Z,12.04
2023-04-16T13:53:21.256Z,11.77
2023-04-16T13:55:47.492Z,12.37
2023-04-16T13:58:13.732Z,11.99
2023-04-16T14:00:39.974Z,12.42
2023-04-16T14:03:06.324Z,12.04
2023-04-16T14:05:32.696Z,12.22
2023-04-16T14:07:58.928Z,12.34
2023-04-16T14:10:25.186Z,11.72
2023-04-16T14:12:51.453Z,11.56
2023-04-16T14:15:17.705Z,11.79
2023-04-16T14:17:44.094Z,12.27
2023-04-16T14:20:10.393Z,11.93
2023-04-16T14:22:36.629Z,11.30
2023-04-16T14:25:02.911Z,11.35
2023-04-16T14:27:29.212Z,11.76
2023-04-16T14:29:55.455Z,12.28
2023-04-16T14:32:21.708Z,12.57
2023-04-16T14:34:47.963Z,12.59
2023-04-16T14:37:14.237Z,12.67
2023-04-16T14:39:40.545Z,12.54
2023-04-16T14:42:06.786Z,12.66
2023-04-16T14:44:33.048Z,12.12
2023-04-16T14:46:59.336Z,11.79
2023-04-16T14:49:25.579Z,12.18
2023-04-16T14:51:51.823Z,12.48
2023-04-16T14:54:18.011Z,11.85
2023-04-16T14:56:44.301Z,11.71
2023-04-16T14:59:10.900Z,11.75
2023-04-16T15:01:37.414Z,11.71
2023-04-16T15:04:03.892Z,11.88
2023-04-16T15:06:30.220Z,12.32
2023-04-16T15:08:56.477Z,12.05
2023-04-16T15:11:22.741Z,12.42
2023-04-16T15:13:49.024Z,12.31
2023-04-16T15:16:15.274Z,12.06
2023-04-16T15:18:41.532Z,12.41
2023-04-16T15:21:08.172Z,11.69
2023-04-16T15:23:35.362Z,11.32
2023-04-16T15:26:01.726Z,11.66
2023-04-16T15:28:28.001Z,11.96
2023-04-16T15:30:54.298Z,11.98
2023-04-16T15:33:20.548Z,12.12
2023-04-16T15:35:46.809Z,12.08
2023-04-16T15:38:13.075Z,12.20
2023-04-16T15:40:39.318Z,11.82
2023-04-16T15:43:05.573Z,11.83
2023-04-16T15:45:31.830Z,12.05
2023-04-16T15:47:58.208Z,11.83
2023-04-16T15:50:24.589Z,11.81
2023-04-16T15:52:50.827Z,11.76
2023-04-16T15:55:17.072Z,11.66
2023-04-16T15:57:43.322Z,11.83
2023-04-16T16:00:11.239Z,11.87
2023-04-16T16:02:38.942Z,12.10
2023-04-16T16:05:05.330Z,11.81
2023-04-16T16:07:31.611Z,12.18
2023-04-16T16:09:57.832Z,12.15
2023-04-16T16:12:24.088Z,11.81
2023-04-16T16:14:50.385Z,11.93
2023-04-16T16:17:16.701Z,12.21
2023-04-16T16:19:44.638Z,11.84
2023-04-16T16:22:12.105Z,12.05
2023-04-16T16:24:38.331Z,11.85
2023-04-16T16:27:04.598Z,11.60
2023-04-16T16:29:30.869Z,11.68
2023-04-16T16:31:57.132Z,12.01
2023-04-16T16:34:23.419Z,11.99
2023-04-16T16:36:49.733Z,12.05
2023-04-16T16:39:15.955Z,11.96
2023-04-16T16:41:42.187Z,12.13
2023-04-16T16:44:08.424Z,11.82
2023-04-16T16:46:34.693Z,12.20
2023-04-16T16:49:00.920Z,11.11
2023-04-16T16:51:27.144Z,11.25
2023-04-16T16:53:53.393Z,11.74
2023-04-16T16:56:19.623Z,11.61
2023-04-16T16:58:45.862Z,11.36
2023-04-16T17:01:12.173Z,11.68
2023-04-16T17:03:38.592Z,11.65
2023-04-16T17:06:04.892Z,11.80
2023-04-16T17:08:31.134Z,11.75
2023-04-16T17:10:57.424Z,11.32
2023-04-16T17:13:23.708Z,11.50
2023-04-16T17:15:49.965Z,11.44
2023-04-16T17:18:17.888Z,10.36
2023-04-16T17:20:44.200Z,10.14
2023-04-16T17:23:10.433Z,10.25
2023-04-16T17:25:36.694Z,10.69
2023-04-16T17:28:02.999Z,9.67
2023-04-16T17:30:29.236Z,10.34
2023-04-16T17:32:55.517Z,10.83
2023-04-16T17:35:21.770Z,10.77
2023-04-16T17:37:48.006Z,11.03
2023-04-16T17:40:14.262Z,11.22
2023-04-16T17:42:40.506Z,11.17
2023-04-16T17:45:06.764Z,11.04
2023-04-16T17:47:33.037Z,11.01
2023-04-16T17:49:59.299Z,11.09
2023-04-16T17:52:25.535Z,11.27
2023-04-16T17:54:51.764Z,11.18
2023-04-16T17:57:18.009Z,10.25
2023-04-16T17:59:44.268Z,9.97
2023-04-16T18:02:10.612Z,9.37
2023-04-16T18:04:37.175Z,9.23
2023-04-16T18:07:03.575Z,9.75
2023-04-16T18:09:29.813Z,10.13
2023-04-16T18:11:56.054Z,9.96
2023-04-16T18:14:22.337Z,10.28
2023-04-16T18:16:48.639Z,10.26
2023-04-16T18:19:14.920Z,9.68
2023-04-16T18:21:41.230Z,9.47
2023-04-16T18:24:07.520Z,10.00
2023-04-16T18:26:35.822Z,9.26
2023-04-16T18:29:03.076Z,9.27
2023-04-16T18:31:29.425Z,9.52
2023-04-16T18:33:58.096Z,9.95
2023-04-16T18:36:24.698Z,10.10
2023-04-16T18:39:00.932Z,10.25
2023-04-16T18:41:28.311Z,9.44
2023-04-16T18:43:54.579Z,9.86
2023-04-16T18:46:20.892Z,9.59
2023-04-16T18:48:47.232Z,9.37
2023-04-16T18:51:15.956Z,9.58
2023-04-16T18:53:42.728Z,9.68
2023-04-16T18:56:09.001Z,9.72
2023-04-16T18:58:35.252Z,9.68
2023-04-16T19:01:01.632Z,9.59
2023-04-16T19:03:28.061Z,9.18
2023-04-16T19:05:54.445Z,8.60
2023-04-16T19:08:20.737Z,8.90
2023-04-16T19:10:47.077Z,9.24
2023-04-16T19:13:13.380Z,8.53
2023-04-16T19:15:39.722Z,8.10
2023-04-16T19:18:06.031Z,8.13
2023-04-16T19:20:32.288Z,8.02
2023-04-16T19:22:58.550Z,8.40
2023-04-16T19:25:24.831Z,8.94
2023-04-16T19:27:51.082Z,8.20
2023-04-16T19:30:17.349Z,8.47
2023-04-16T19:32:43.637Z,8.31
2023-04-16T19:35:10.021Z,7.63
2023-04-16T19:37:36.368Z,7.58
2023-04-16T19:40:02.624Z,8.45
2023-04-16T19:42:28.993Z,8.03
2023-04-16T19:44:55.253Z,7.57
2023-04-16T19:47:21.555Z,7.33
2023-04-16T19:49:47.821Z,7.25
2023-04-16T19:52:14.068Z,7.58
2023-04-16T19:54:40.315Z,8.20
2023-04-16T19:57:06.592Z,8.25
2023-04-16T19:59:32.925Z,8.09
2023-04-16T20:01:59.258Z,8.10
2023-04-16T20:04:25.569Z,8.14
2023-04-16T20:06:51.928Z,8.34
2023-04-16T20:09:18.200Z,8.64
2023-04-16T20:11:44.442Z,8.16
2023-04-16T20:14:10.727Z,7.87
2023-04-16T20:16:37.026Z,7.64
2023-04-16T20:19:05.246Z,7.51
2023-04-16T20:21:33.465Z,8.01
2023-04-16T20:23:59.711Z,8.05
2023-04-16T20:26:25.947Z,7.95
2023-04-16T20:28:52.185Z,7.93
2023-04-16T20:31:18.462Z,8.19
2023-04-16T20:33:44.902Z,8.08
2023-04-16T20:36:11.166Z,7.98
2023-04-16T20:38:37.410Z,7.76
2023-04-16T20:41:03.652Z,7.75
2023-04-16T20:43:29.929Z,7.36
2023-04-16T20:45:56.319Z,6.74
2023-04-16T20:48:22.646Z,6.84
2023-04-16T20:50:48.925Z,7.00
2023-04-16T20:53:15.143Z,6.99
2023-04-16T20:55:41.370Z,7.16
2023-04-16T20:58:07.595Z,7.20
2023-04-16T21:00:33.878Z,7.28
2023-04-16T21:03:00.385Z,6.90
2023-04-16T21:05:26.720Z,6.37
2023-04-16T21:07:55.343Z,5.87
2023-04-16T21:10:22.067Z,5.79
2023-04-16T21:12:48.287Z,5.83
2023-04-16T21:15:14.507Z,5.30
2023-04-16T21:17:40.839Z,5.24
2023-04-16T21:20:07.164Z,5.50
2023-04-16T21:22:33.432Z,5.63
2023-04-16T21:24:59.676Z,5.66
2023-04-16T21:27:25.911Z,5.92
2023-04-16T21:29:52.151Z,5.69
2023-04-16T21:32:18.410Z,6.12
2023-04-16T21:34:44.643Z,6.17
2023-04-16T21:37:10.893Z,6.42
2023-04-16T21:39:37.169Z,6.50
2023-04-16T21:42:03.387Z,6.66
2023-04-16T21:44:29.626Z,6.83
2023-04-16T21:46:55.890Z,6.65
2023-04-16T21:49:22.162Z,6.59
2023-04-16T21:51:48.379Z,6.61
2023-04-16T21:54:14.617Z,6.66
2023-04-16T21:56:40.841Z,6.79
2023-04-16T21:59:07.136Z,6.73
2023-04-16T22:01:33.479Z,6.67
2023-04-16T22:03:59.930Z,6.59
2023-04-16T22:06:26.236Z,6.50
2023-04-16T22:08:52.463Z,6.58
2023-04-16T22:11:18.688Z,6.57
2023-04-16T22:13:44.913Z,6.59
2023-04-16T22:16:11.860Z,6.32
2023-04-16T22:18:38.294Z,5.91
2023-04-16T22:21:04.515Z,5.66
2023-04-16T22:23:30.745Z,5.70
2023-04-16T22:25:56.989Z,5.66
2023-04-16T22:28:23.311Z,5.55
2023-04-16T22:30:49.587Z,5.20
2023-04-16T22:33:15.927Z,5.23
2023-04-16T22:35:42.260Z,5.25
2023-04-16T22:38:08.489Z,4.76
2023-04-16T22:40:34.717Z,4.95
2023-04-16T22:43:00.969Z,5.19
2023-04-16T22:45:27.227Z,5.15
2023-04-16T22:47:53.491Z,5.26
2023-04-16T22:50:19.821Z,5.31
2023-04-16T22:52:46.037Z,4.97
2023-04-16T22:55:12.275Z,5.32
2023-04-16T22:57:38.546Z,5.36
2023-04-16T23:00:04.794Z,5.11
2023-04-16T23:02:31.124Z,4.95
2023-04-16T23:04:57.394Z,5.05
2023-04-16T23:07:23.637Z,4.87
2023-04-16T23:09:49.876Z,4.75
2023-04-16T23:12:16.126Z,5.15
2023-04-16T23:14:42.356Z,5.24
2023-04-16T23:17:08.639Z,5.17
2023-04-16T23:19:34.940Z,4.75
2023-04-16T23:22:01.199Z,4.50
2023-04-16T23:24:27.458Z,4.42
2023-04-16T23:26:53.742Z,4.40
2023-04-16T23:29:19.973Z,4.37
2023-04-16T23:31:46.286Z,3.99
2023-04-16T23:34:12.549Z,4.15
2023-04-16T23:36:38.805Z,4.24
2023-04-16T23:39:05.051Z,4.01
2023-04-16T23:41:31.288Z,3.85
2023-04-16T23:43:57.572Z,3.89
2023-04-16T23:46:23.863Z,3.92
2023-04-16T23:48:50.161Z,3.95
2023-04-16T23:51:16.400Z,3.92
2023-04-16T23:53:42.626Z,4.06
2023-04-16T23:56:08.847Z,4.68
2023-04-16T23:58:35.113Z,4.29
